createdAt,value
2019-06-10T00:00:32.953Z,20.11
2019-06-10T00:03:07.231Z,20.08
2019-06-10T00:05:43.312Z,20.06
2019-06-10T00:08:16.411Z,19.99
2019-06-10T00:10:51.132Z,20.02
2019-06-10T00:13:25.972Z,19.99
2019-06-10T00:16:01.285Z,19.97
2019-06-10T00:18:42.076Z,19.94
2019-06-10T00:21:11.185Z,19.92
2019-06-10T00:23:46.920Z,19.86
2019-06-10T00:26:21.612Z,19.85
2019-06-10T00:28:56.112Z,19.81
2019-06-10T00:31:31.256Z,19.81
2019-06-10T00:34:06.351Z,19.78
2019-06-10T00:36:41.702Z,19.69
2019-06-10T00:39:15.171Z,19.69
2019-06-10T00:41:48.245Z,19.68
2019-06-10T00:44:23.436Z,19.59
2019-06-10T00:47:04.821Z,19.58
2019-06-10T00:49:37.374Z,19.55
2019-06-10T00:52:11.698Z,19.52
2019-06-10T00:54:43.602Z,19.48
2019-06-10T00:57:20.902Z,19.48
2019-06-10T00:59:55.516Z,19.45
2019-06-10T01:02:28.691Z,19.40
2019-06-10T01:05:01.535Z,19.37
2019-06-10T01:07:37.561Z,19.33
2019-06-10T01:10:13.413Z,19.23
2019-06-10T01:12:47.425Z,19.20
2019-06-10T01:15:21.854Z,19.23
2019-06-10T01:17:55.622Z,19.20
2019-06-10T01:20:28.105Z,19.16
2019-06-10T01:23:02.436Z,19.21
2019-06-10T01:25:37.770Z,19.23
2019-06-10T01:28:16.779Z,19.21
2019-06-10T01:30:51.677Z,19.28
2019-06-10T01:33:26.789Z,19.27
2019-06-10T01:36:01.021Z,19.30
2019-06-10T01:38:36.101Z,19.34
2019-06-10T01:41:11.131Z,19.33
2019-06-10T01:43:44.520Z,19.33
2019-06-10T01:46:17.503Z,19.30
2019-06-10T01:48:55.118Z,19.35
2019-06-10T01:51:31.693Z,19.34
2019-06-10T01:54:04.302Z,19.34
2019-06-10T01:56:36.631Z,19.33
2019-06-10T01:59:12.160Z,19.28
2019-06-10T02:02:01.597Z,19.26
2019-06-10T02:04:35.437Z,19.26
2019-06-10T02:07:09.195Z,19.20
2019-06-10T02:09:44.066Z,19.20
2019-06-10T02:12:18.777Z,19.18
2019-06-10T02:14:54.172Z,19.16
2019-06-10T02:17:28.478Z,19.12
2019-06-10T02:20:03.099Z,19.15
2019-06-10T02:22:35.263Z,19.13
2019-06-10T02:25:08.054Z,19.11
2019-06-10T02:27:45.206Z,19.09
2019-06-10T02:30:29.783Z,19.08
2019-06-10T02:32:56.948Z,19.07
2019-06-10T02:35:40.204Z,19.08
2019-06-10T02:38:05.464Z,19.08
2019-06-10T02:40:38.772Z,19.08
2019-06-10T02:43:17.820Z,19.03
2019-06-10T02:45:49.366Z,18.99
2019-06-10T02:48:27.907Z,18.93
2019-06-10T02:51:08.769Z,18.93
2019-06-10T02:53:43.653Z,18.94
2019-06-10T02:56:19.984Z,18.92
2019-06-10T02:58:56.392Z,18.91
2019-06-10T03:01:34.291Z,18.92
2019-06-10T03:04:07.490Z,18.91
2019-06-10T03:06:44.692Z,18.92
2019-06-10T03:09:16.947Z,18.91
2019-06-10T03:11:53.344Z,18.94
2019-06-10T03:14:25.678Z,18.94
2019-06-10T03:17:03.151Z,18.95
2019-06-10T03:19:46.954Z,18.94
2019-06-10T03:22:13.362Z,18.96
2019-06-10T03:24:45.495Z,18.96
2019-06-10T03:27:23.529Z,18.97
2019-06-10T03:30:04.740Z,18.97
2019-06-10T03:32:40.659Z,18.96
2019-06-10T03:35:12.946Z,18.98
2019-06-10T03:37:44.491Z,19.00
2019-06-10T03:40:18.528Z,19.08
2019-06-10T03:42:52.019Z,19.09
2019-06-10T03:45:26.747Z,19.12
2019-06-10T03:47:59.752Z,19.15
2019-06-10T03:50:32.491Z,19.18
2019-06-10T03:53:05.854Z,19.18
2019-06-10T03:55:42.239Z,19.24
2019-06-10T03:58:17.482Z,19.26
2019-06-10T04:00:54.646Z,19.33
2019-06-10T04:03:29.385Z,19.36
2019-06-10T04:06:03.583Z,19.42
2019-06-10T04:08:39.906Z,19.45
2019-06-10T04:11:12.986Z,19.39
2019-06-10T04:13:46.621Z,19.43
2019-06-10T04:16:20.217Z,19.49
2019-06-10T04:18:53.824Z,19.55
2019-06-10T04:21:29.646Z,19.64
2019-06-10T04:24:02.533Z,19.68
2019-06-10T04:26:38.154Z,19.76
2019-06-10T04:29:12.894Z,19.73
2019-06-10T04:31:46.715Z,19.75
2019-06-10T04:34:20.461Z,19.82
2019-06-10T04:36:56.037Z,19.87
2019-06-10T04:39:29.278Z,19.94
2019-06-10T04:42:02.521Z,19.98
2019-06-10T04:44:35.478Z,20.03
2019-06-10T04:47:07.888Z,20.08
2019-06-10T04:49:42.830Z,20.05
2019-06-10T04:52:16.270Z,20.10
2019-06-10T04:54:52.741Z,20.17
2019-06-10T04:57:26.870Z,20.13
2019-06-10T05:00:04.140Z,20.13
2019-06-10T05:02:35.830Z,20.19
2019-06-10T05:05:07.895Z,20.16
2019-06-10T05:07:42.602Z,20.13
2019-06-10T05:10:16.216Z,20.20
2019-06-10T05:12:48.441Z,20.17
2019-06-10T05:15:26.262Z,20.28
2019-06-10T05:17:58.879Z,20.30
2019-06-10T05:20:46.796Z,20.41
2019-06-10T05:23:05.927Z,20.40
2019-06-10T05:25:42.648Z,20.52
2019-06-10T05:28:14.322Z,20.65
2019-06-10T05:30:48.549Z,20.81
2019-06-10T05:33:24.020Z,20.97
2019-06-10T05:35:58.755Z,21.03
2019-06-10T05:38:35.302Z,21.20
2019-06-10T05:41:08.945Z,21.27
2019-06-10T05:43:43.174Z,21.30
2019-06-10T05:46:17.238Z,21.42
2019-06-10T05:48:52.415Z,21.44
2019-06-10T05:51:26.421Z,21.52
2019-06-10T05:54:02.178Z,21.50
2019-06-10T05:56:36.742Z,21.55
2019-06-10T05:59:08.945Z,21.63
2019-06-10T06:01:43.130Z,21.68
2019-06-10T06:04:17.604Z,21.77
2019-06-10T06:06:53.245Z,21.85
2019-06-10T06:09:27.148Z,21.81
2019-06-10T06:12:02.478Z,21.96
2019-06-10T06:14:38.643Z,21.98
2019-06-10T06:17:16.649Z,22.12
2019-06-10T06:19:46.746Z,22.13
2019-06-10T06:22:22.093Z,22.14
2019-06-10T06:24:57.090Z,22.25
2019-06-10T06:27:31.377Z,22.36
2019-06-10T06:30:11.401Z,22.48
2019-06-10T06:32:43.658Z,22.53
2019-06-10T06:35:19.059Z,22.62
2019-06-10T06:37:54.095Z,22.72
2019-06-10T06:40:29.204Z,22.78
2019-06-10T06:43:03.220Z,22.81
2019-06-10T06:45:37.466Z,23.06
2019-06-10T06:48:12.191Z,23.06
2019-06-10T06:51:01.950Z,23.12
2019-06-10T06:53:33.333Z,23.19
2019-06-10T06:55:58.098Z,23.28
2019-06-10T06:58:33.582Z,23.36
2019-06-10T07:01:11.005Z,23.45
2019-06-10T07:03:45.442Z,23.49
2019-06-10T07:06:22.902Z,23.59
2019-06-10T07:09:04.605Z,23.59
2019-06-10T07:11:38.708Z,23.55
2019-06-10T07:14:13.882Z,23.55
2019-06-10T07:16:46.792Z,23.61
2019-06-10T07:19:22.671Z,23.64
2019-06-10T07:22:09.453Z,23.82
2019-06-10T07:24:37.890Z,23.94
2019-06-10T07:27:08.092Z,24.02
2019-06-10T07:29:46.926Z,24.06
2019-06-10T07:32:17.185Z,24.20
2019-06-10T07:34:52.489Z,24.18
2019-06-10T07:37:25.065Z,24.30
2019-06-10T07:39:57.058Z,24.39
2019-06-10T07:42:33.309Z,24.55
2019-06-10T07:45:06.794Z,24.60
2019-06-10T07:47:39.066Z,24.74
2019-06-10T07:50:12.157Z,24.85
2019-06-10T07:52:46.924Z,24.88
2019-06-10T07:55:22.195Z,25.00
2019-06-10T07:57:55.890Z,25.05
2019-06-10T08:00:30.170Z,25.21
2019-06-10T08:03:04.824Z,25.31
2019-06-10T08:05:37.736Z,25.27
2019-06-10T08:08:14.156Z,25.39
2019-06-10T08:10:52.938Z,25.43
2019-06-10T08:13:24.969Z,25.43
2019-06-10T08:15:58.506Z,25.48
2019-06-10T08:18:38.142Z,25.58
2019-06-10T08:21:08.074Z,25.72
2019-06-10T08:23:44.750Z,25.75
2019-06-10T08:26:16.854Z,25.78
2019-06-10T08:28:52.812Z,25.78
2019-06-10T08:31:26.751Z,25.89
2019-06-10T08:34:02.759Z,26.00
2019-06-10T08:36:33.848Z,26.09
2019-06-10T08:39:15.897Z,26.13
2019-06-10T08:41:49.419Z,26.21
2019-06-10T08:44:23.172Z,26.31
2019-06-10T08:46:57.489Z,26.43
2019-06-10T08:49:33.035Z,26.49
2019-06-10T08:52:07.859Z,26.54
2019-06-10T08:54:45.696Z,26.66
2019-06-10T08:57:15.179Z,26.80
2019-06-10T08:59:49.284Z,26.75
2019-06-10T09:02:23.914Z,26.86
2019-06-10T09:04:56.029Z,26.95
2019-06-10T09:07:29.156Z,27.06
2019-06-10T09:10:03.031Z,27.13
2019-06-10T09:12:36.779Z,27.18
2019-06-10T09:15:09.701Z,27.25
2019-06-10T09:17:46.731Z,27.37
2019-06-10T09:20:22.788Z,27.44
2019-06-10T09:23:13.742Z,27.53
2019-06-10T09:25:28.042Z,27.62
2019-06-10T09:28:03.473Z,27.50
2019-06-10T09:30:36.788Z,27.64
2019-06-10T09:33:12.980Z,27.62
2019-06-10T09:35:49.096Z,27.71
2019-06-10T09:38:22.311Z,27.69
2019-06-10T09:41:01.237Z,27.82
2019-06-10T09:43:33.367Z,27.90
2019-06-10T09:46:07.613Z,27.98
2019-06-10T09:48:47.078Z,28.08
2019-06-10T09:51:19.555Z,28.16
2019-06-10T09:54:02.132Z,28.31
2019-06-10T09:56:28.578Z,28.28
2019-06-10T09:59:03.106Z,28.46
2019-06-10T10:01:37.961Z,28.59
2019-06-10T10:04:12.263Z,28.58
2019-06-10T10:06:46.673Z,28.65
2019-06-10T10:09:19.875Z,28.64
2019-06-10T10:11:55.910Z,28.64
2019-06-10T10:14:26.933Z,28.74
2019-06-10T10:17:00.748Z,28.81
2019-06-10T10:19:35.418Z,28.76
2019-06-10T10:22:11.642Z,28.93
2019-06-10T10:24:44.616Z,29.03
2019-06-10T10:27:19.021Z,29.12
2019-06-10T10:29:57.063Z,29.05
2019-06-10T10:32:26.738Z,29.16
2019-06-10T10:35:03.698Z,29.36
2019-06-10T10:37:37.195Z,29.37
2019-06-10T10:40:13.456Z,29.45
2019-06-10T10:42:52.221Z,29.54
2019-06-10T10:45:22.937Z,29.67
2019-06-10T10:47:57.784Z,29.70
2019-06-10T10:50:35.359Z,29.79
2019-06-10T10:53:07.430Z,29.87
2019-06-10T10:55:43.680Z,29.90
2019-06-10T10:58:16.315Z,29.98
2019-06-10T11:00:54.421Z,30.00
2019-06-10T11:03:26.130Z,30.16
2019-06-10T11:06:01.255Z,30.26
2019-06-10T11:08:34.129Z,30.29
2019-06-10T11:11:06.091Z,30.22
2019-06-10T11:13:43.366Z,30.24
2019-06-10T11:16:22.368Z,30.26
2019-06-10T11:18:58.118Z,30.44
2019-06-10T11:21:33.130Z,30.56
2019-06-10T11:24:05.466Z,30.76
2019-06-10T11:26:38.319Z,30.82
2019-06-10T11:29:09.941Z,30.97
2019-06-10T11:31:44.313Z,31.12
2019-06-10T11:34:19.929Z,31.21
2019-06-10T11:36:55.054Z,31.26
2019-06-10T11:39:28.882Z,31.41
2019-06-10T11:42:03.646Z,31.40
2019-06-10T11:44:36.076Z,31.69
2019-06-10T11:47:08.719Z,31.77
2019-06-10T11:49:43.274Z,31.87
2019-06-10T11:52:16.951Z,31.99
2019-06-10T11:54:59.212Z,32.37
2019-06-10T11:57:23.247Z,32.65
2019-06-10T11:59:57.779Z,33.81
2019-06-10T12:02:30.133Z,33.81
2019-06-10T12:05:05.853Z,34.31
2019-06-10T12:07:38.913Z,35.06
2019-06-10T12:10:12.842Z,35.47
2019-06-10T12:12:45.899Z,35.50
2019-06-10T12:15:19.965Z,36.12
2019-06-10T12:18:00.857Z,36.41
2019-06-10T12:20:33.247Z,36.92
2019-06-10T12:23:05.813Z,37.29
2019-06-10T12:25:39.861Z,37.30
2019-06-10T12:28:12.895Z,37.26
2019-06-10T12:30:45.454Z,38.06
2019-06-10T12:33:22.210Z,38.58
2019-06-10T12:35:56.548Z,38.50
2019-06-10T12:38:32.493Z,38.72
2019-06-10T12:41:09.562Z,38.25
2019-06-10T12:43:43.240Z,39.04
2019-06-10T12:46:16.944Z,39.24
2019-06-10T12:48:49.390Z,38.93
2019-06-10T12:51:23.792Z,38.71
2019-06-10T12:54:04.762Z,39.02
2019-06-10T12:56:34.900Z,38.88
2019-06-10T12:59:09.987Z,38.14
2019-06-10T13:01:45.046Z,38.47
2019-06-10T13:04:18.971Z,38.11
2019-06-10T13:06:52.785Z,38.36
2019-06-10T13:09:28.534Z,38.00
2019-06-10T13:12:03.995Z,38.35
2019-06-10T13:14:37.402Z,38.49
2019-06-10T13:17:10.210Z,38.98
2019-06-10T13:19:43.458Z,39.13
2019-06-10T13:22:17.123Z,38.97
2019-06-10T13:24:49.785Z,38.73
2019-06-10T13:27:23.732Z,38.86
2019-06-10T13:29:57.884Z,38.68
2019-06-10T13:32:35.616Z,39.19
2019-06-10T13:35:12.531Z,39.08
2019-06-10T13:37:46.970Z,39.30
2019-06-10T13:40:22.685Z,39.47
2019-06-10T13:42:57.610Z,39.01
2019-06-10T13:45:33.092Z,38.13
2019-06-10T13:48:08.369Z,38.58
2019-06-10T13:50:38.727Z,38.65
2019-06-10T13:53:12.645Z,38.56
2019-06-10T13:55:46.713Z,38.96
2019-06-10T13:58:22.811Z,37.68
2019-06-10T14:00:53.797Z,38.14
2019-06-10T14:03:26.563Z,38.91
2019-06-10T14:06:04.999Z,39.50
2019-06-10T14:08:35.333Z,39.72
2019-06-10T14:11:07.817Z,39.82
2019-06-10T14:13:44.254Z,39.65
2019-06-10T14:16:16.856Z,39.96
2019-06-10T14:18:50.270Z,40.12
2019-06-10T14:21:23.781Z,39.99
2019-06-10T14:23:56.958Z,39.95
2019-06-10T14:26:39.986Z,40.20
2019-06-10T14:29:04.144Z,40.16
2019-06-10T14:31:43.631Z,40.12
2019-06-10T14:34:14.019Z,40.20
2019-06-10T14:36:44.034Z,40.16
2019-06-10T14:39:18.050Z,40.32
2019-06-10T14:41:55.221Z,39.90
2019-06-10T14:44:28.881Z,39.95
2019-06-10T14:47:04.510Z,40.19
2019-06-10T14:49:36.505Z,40.04
2019-06-10T14:52:13.869Z,40.45
2019-06-10T14:54:47.956Z,40.45
2019-06-10T14:57:22.695Z,40.48
2019-06-10T14:59:55.350Z,40.50
2019-06-10T15:02:28.611Z,40.35
2019-06-10T15:05:02.778Z,40.23
2019-06-10T15:07:37.339Z,40.09
2019-06-10T15:10:14.500Z,39.89
2019-06-10T15:12:46.137Z,40.00
2019-06-10T15:15:18.128Z,39.86
2019-06-10T15:17:53.332Z,39.99
2019-06-10T15:20:26.572Z,39.97
2019-06-10T15:22:59.979Z,40.05
2019-06-10T15:25:48.696Z,39.92
2019-06-10T15:28:08.095Z,39.85
2019-06-10T15:30:43.144Z,39.50
2019-06-10T15:33:16.974Z,39.73
2019-06-10T15:35:53.304Z,39.50
2019-06-10T15:38:25.227Z,39.50
2019-06-10T15:40:56.975Z,39.53
2019-06-10T15:43:30.209Z,39.46
2019-06-10T15:46:07.051Z,39.54
2019-06-10T15:48:43.487Z,39.50
2019-06-10T15:51:22.487Z,39.72
2019-06-10T15:53:54.286Z,39.54
2019-06-10T15:56:39.845Z,39.49
2019-06-10T15:59:06.268Z,39.48
2019-06-10T16:01:39.979Z,39.40
2019-06-10T16:04:15.993Z,39.48
2019-06-10T16:06:49.756Z,39.48
2019-06-10T16:09:23.450Z,39.39
2019-06-10T16:11:55.386Z,39.15
2019-06-10T16:14:27.330Z,39.11
2019-06-10T16:17:03.104Z,39.05
2019-06-10T16:19:34.990Z,38.71
2019-06-10T16:22:12.382Z,38.90
2019-06-10T16:24:48.333Z,38.69
2019-06-10T16:27:43.208Z,38.78
2019-06-10T16:30:02.574Z,38.82
2019-06-10T16:32:36.834Z,38.73
2019-06-10T16:35:21.490Z,38.45
2019-06-10T16:37:56.841Z,38.52
2019-06-10T16:40:32.390Z,38.32
2019-06-10T16:43:05.009Z,38.24
2019-06-10T16:45:37.809Z,38.19
2019-06-10T16:48:09.942Z,38.02
2019-06-10T16:50:47.113Z,38.05
2019-06-10T16:53:28.458Z,38.07
2019-06-10T16:55:58.618Z,38.14
2019-06-10T16:58:33.190Z,38.10
2019-06-10T17:01:05.624Z,38.19
2019-06-10T17:03:37.950Z,38.06
2019-06-10T17:06:12.927Z,37.96
2019-06-10T17:08:46.385Z,37.66
2019-06-10T17:11:24.187Z,37.32
2019-06-10T17:13:58.260Z,37.48
2019-06-10T17:16:31.509Z,37.39
2019-06-10T17:19:03.988Z,37.51
2019-06-10T17:21:37.209Z,37.24
2019-06-10T17:24:12.892Z,37.12
2019-06-10T17:26:50.134Z,37.01
2019-06-10T17:29:25.928Z,36.66
2019-06-10T17:31:58.854Z,36.27
2019-06-10T17:34:33.929Z,36.39
2019-06-10T17:37:05.934Z,36.40
2019-06-10T17:39:42.752Z,36.27
2019-06-10T17:42:17.411Z,36.28
2019-06-10T17:44:50.059Z,35.95
2019-06-10T17:47:24.548Z,36.04
2019-06-10T17:49:56.845Z,36.03
2019-06-10T17:52:34.152Z,35.73
2019-06-10T17:55:07.545Z,35.80
2019-06-10T17:57:42.985Z,35.73
2019-06-10T18:00:18.579Z,35.52
2019-06-10T18:02:53.557Z,35.29
2019-06-10T18:05:25.544Z,35.16
2019-06-10T18:07:57.675Z,34.89
2019-06-10T18:10:29.866Z,34.47
2019-06-10T18:13:13.287Z,34.30
2019-06-10T18:15:36.878Z,33.93
2019-06-10T18:18:12.988Z,33.88
2019-06-10T18:20:53.299Z,33.48
2019-06-10T18:23:24.933Z,33.24
2019-06-10T18:25:59.037Z,33.10
2019-06-10T18:28:45.350Z,32.89
2019-06-10T18:31:08.682Z,32.38
2019-06-10T18:33:42.454Z,32.00
2019-06-10T18:36:16.402Z,31.72
2019-06-10T18:38:52.661Z,31.07
2019-06-10T18:41:25.125Z,30.94
2019-06-10T18:43:58.889Z,30.52
2019-06-10T18:46:33.251Z,30.35
2019-06-10T18:49:06.054Z,29.94
2019-06-10T18:51:43.200Z,29.65
2019-06-10T18:54:18.028Z,29.35
2019-06-10T18:56:52.544Z,29.08
2019-06-10T18:59:28.091Z,28.88
2019-06-10T19:02:06.230Z,28.65
2019-06-10T19:04:40.196Z,28.36
2019-06-10T19:07:12.216Z,28.16
2019-06-10T19:09:47.944Z,27.96
2019-06-10T19:12:22.453Z,27.87
2019-06-10T19:14:55.908Z,27.71
2019-06-10T19:17:33.139Z,27.58
2019-06-10T19:20:07.983Z,27.42
2019-06-10T19:22:41.107Z,27.29
2019-06-10T19:25:17.130Z,27.18
2019-06-10T19:27:52.977Z,27.03
2019-06-10T19:30:29.286Z,26.96
2019-06-10T19:33:05.208Z,26.78
2019-06-10T19:35:39.673Z,26.69
2019-06-10T19:38:13.464Z,26.69
2019-06-10T19:40:52.277Z,26.61
2019-06-10T19:43:26.381Z,26.56
2019-06-10T19:46:02.974Z,26.59
2019-06-10T19:48:40.187Z,26.50
2019-06-10T19:51:12.223Z,26.46
2019-06-10T19:53:45.355Z,26.45
2019-06-10T19:56:23.250Z,26.40
2019-06-10T19:58:55.305Z,26.33
2019-06-10T20:01:33.850Z,26.25
2019-06-10T20:04:09.705Z,26.10
2019-06-10T20:06:47.872Z,25.95
2019-06-10T20:09:16.562Z,25.87
2019-06-10T20:11:48.296Z,25.77
2019-06-10T20:14:21.934Z,25.70
2019-06-10T20:16:53.576Z,25.63
2019-06-10T20:19:29.337Z,25.58
2019-06-10T20:22:01.295Z,25.43
2019-06-10T20:24:34.010Z,25.35
2019-06-10T20:27:07.368Z,25.35
2019-06-10T20:29:39.947Z,25.31
2019-06-10T20:32:14.052Z,25.24
2019-06-10T20:34:52.688Z,25.25
2019-06-10T20:37:26.135Z,25.23
2019-06-10T20:39:59.550Z,25.18
2019-06-10T20:42:32.380Z,25.15
2019-06-10T20:45:08.407Z,25.06
2019-06-10T20:47:44.629Z,25.01
2019-06-10T20:50:19.806Z,24.96
2019-06-10T20:52:52.968Z,24.89
2019-06-10T20:55:40.115Z,24.84
2019-06-10T20:58:04.197Z,24.83
2019-06-10T21:00:48.054Z,24.77
2019-06-10T21:03:20.172Z,24.71
2019-06-10T21:05:53.598Z,24.63
2019-06-10T21:08:33.156Z,24.59
2019-06-10T21:11:08.970Z,24.55
2019-06-10T21:13:46.036Z,24.50
2019-06-10T21:16:15.261Z,24.43
2019-06-10T21:18:55.111Z,24.23
2019-06-10T21:21:27.061Z,24.12
2019-06-10T21:24:02.261Z,24.05
2019-06-10T21:26:35.670Z,24.05
2019-06-10T21:29:09.794Z,24.01
2019-06-10T21:31:46.769Z,24.00
2019-06-10T21:34:18.872Z,23.94
2019-06-10T21:36:55.999Z,23.91
2019-06-10T21:39:32.210Z,23.89
2019-06-10T21:42:05.246Z,23.80
2019-06-10T21:44:38.047Z,23.69
2019-06-10T21:47:12.823Z,23.63
2019-06-10T21:49:46.916Z,23.56
2019-06-10T21:52:20.058Z,23.48
2019-06-10T21:54:52.798Z,23.43
2019-06-10T21:57:27.231Z,23.39
2019-06-10T22:00:06.661Z,23.34
2019-06-10T22:02:39.175Z,23.25
2019-06-10T22:05:13.613Z,23.25
2019-06-10T22:07:49.599Z,23.21
2019-06-10T22:10:22.912Z,23.15
2019-06-10T22:12:56.075Z,23.10
2019-06-10T22:15:33.265Z,23.11
2019-06-10T22:18:08.426Z,23.14
2019-06-10T22:20:43.015Z,23.12
2019-06-10T22:23:18.328Z,23.09
2019-06-10T22:25:57.736Z,23.06
2019-06-10T22:28:33.508Z,23.04
2019-06-10T22:31:19.110Z,22.98
2019-06-10T22:33:45.278Z,22.96
2019-06-10T22:36:23.004Z,23.01
2019-06-10T22:38:59.276Z,23.01
2019-06-10T22:41:33.224Z,22.99
2019-06-10T22:44:06.919Z,23.01
2019-06-10T22:46:42.543Z,22.97
2019-06-10T22:49:19.391Z,22.92
2019-06-10T22:51:56.549Z,22.91
2019-06-10T22:54:32.102Z,22.84
2019-06-10T22:57:04.487Z,22.77
2019-06-10T22:59:37.798Z,22.79
2019-06-10T23:02:13.183Z,22.72
2019-06-10T23:04:47.036Z,22.64
2019-06-10T23:07:22.898Z,22.57
2019-06-10T23:09:57.500Z,22.39
2019-06-10T23:12:33.337Z,22.39
2019-06-10T23:15:08.225Z,22.33
2019-06-10T23:17:43.832Z,22.35
2019-06-10T23:20:17.452Z,22.30
2019-06-10T23:22:55.282Z,22.32
2019-06-10T23:25:26.478Z,22.28
2019-06-10T23:28:01.445Z,22.17
2019-06-10T23:30:36.753Z,22.16
2019-06-10T23:33:12.208Z,22.08
2019-06-10T23:35:47.554Z,22.02
2019-06-10T23:38:23.629Z,21.95
2019-06-10T23:40:56.927Z,21.93
2019-06-10T23:43:32.992Z,21.88
2019-06-10T23:46:11.984Z,21.82
2019-06-10T23:48:44.383Z,21.72
2019-06-10T23:51:16.651Z,21.70
2019-06-10T23:53:49.535Z,21.78
2019-06-10T23:56:22.182Z,21.76
2019-06-10T23:58:57.494Z,21.78
